createdAt,value
2018-03-14T00:02:21.918Z,66.73
2018-03-14T00:04:48.426Z,66.73
2018-03-14T00:07:14.915Z,66.72
2018-03-14T00:09:41.541Z,66.72
2018-03-14T00:12:08.015Z,66.76
2018-03-14T00:14:34.530Z,66.73
2018-03-14T00:17:01.021Z,66.79
2018-03-14T00:19:27.524Z,66.77
2018-03-14T00:21:54.000Z,66.79
2018-03-14T00:24:20.503Z,66.77
2018-03-14T00:26:46.980Z,66.77
2018-03-14T00:29:13.486Z,66.78
2018-03-14T00:31:40.769Z,66.76
2018-03-14T00:34:07.278Z,66.76
2018-03-14T00:36:33.756Z,66.75
2018-03-14T00:39:00.279Z,66.73
2018-03-14T00:41:26.743Z,66.73
2018-03-14T00:43:54.033Z,66.76
2018-03-14T00:46:20.527Z,66.78
2018-03-14T00:48:46.981Z,66.80
2018-03-14T00:51:13.468Z,66.78
2018-03-14T00:53:39.934Z,66.79
2018-03-14T00:56:06.418Z,66.79
2018-03-14T00:58:32.894Z,66.78
2018-03-14T01:00:59.403Z,66.76
2018-03-14T01:03:26.658Z,66.73
2018-03-14T01:05:53.164Z,66.71
2018-03-14T01:08:19.643Z,66.75
2018-03-14T01:10:46.165Z,66.72
2018-03-14T01:13:12.654Z,66.72
2018-03-14T01:15:39.145Z,66.71
2018-03-14T01:18:05.612Z,66.71
2018-03-14T01:20:32.117Z,66.69
2018-03-14T01:22:59.388Z,66.67
2018-03-14T01:25:26.658Z,66.71
2018-03-14T01:27:53.888Z,66.68
2018-03-14T01:30:20.398Z,66.71
2018-03-14T01:32:46.860Z,66.67
2018-03-14T01:35:13.337Z,66.68
2018-03-14T01:37:39.836Z,66.68
2018-03-14T01:40:06.333Z,66.66
2018-03-14T01:42:33.578Z,66.70
2018-03-14T01:45:00.098Z,66.65
2018-03-14T01:47:26.574Z,66.67
2018-03-14T01:49:53.051Z,66.69
2018-03-14T01:52:20.298Z,66.67
2018-03-14T01:54:46.778Z,66.66
2018-03-14T01:57:14.041Z,66.64
2018-03-14T01:59:40.516Z,66.62
2018-03-14T02:02:07.030Z,66.61
2018-03-14T02:04:33.514Z,66.60
2018-03-14T02:07:00.030Z,66.64
2018-03-14T02:09:27.268Z,66.62
2018-03-14T02:11:53.784Z,66.59
2018-03-14T02:14:20.248Z,66.62
2018-03-14T02:16:46.774Z,66.59
2018-03-14T02:19:13.258Z,66.58
2018-03-14T02:21:40.552Z,66.58
2018-03-14T02:24:07.043Z,66.56
2018-03-14T02:26:33.519Z,66.59
2018-03-14T02:29:00.825Z,66.56
2018-03-14T02:31:27.379Z,66.59
2018-03-14T02:33:54.853Z,66.54
2018-03-14T02:36:21.418Z,66.58
2018-03-14T02:38:47.894Z,66.58
2018-03-14T02:41:15.136Z,66.56
2018-03-14T02:43:41.602Z,66.57
2018-03-14T02:46:08.065Z,66.55
2018-03-14T02:48:34.507Z,66.55
2018-03-14T02:51:00.969Z,66.56
2018-03-14T02:53:27.414Z,66.57
2018-03-14T02:55:53.870Z,66.56
2018-03-14T02:58:21.090Z,66.55
2018-03-14T03:00:47.550Z,66.53
2018-03-14T03:03:14.764Z,66.55
2018-03-14T03:05:41.232Z,66.50
2018-03-14T03:08:07.702Z,66.53
2018-03-14T03:10:34.152Z,66.52
2018-03-14T03:13:00.624Z,66.51
2018-03-14T03:15:27.846Z,66.51
2018-03-14T03:17:54.311Z,66.51
2018-03-14T03:20:20.798Z,66.47
2018-03-14T03:22:47.259Z,66.47
2018-03-14T03:25:13.753Z,66.46
2018-03-14T03:27:41.715Z,66.48
2018-03-14T03:30:08.246Z,66.44
2018-03-14T03:32:34.713Z,66.48
2018-03-14T03:35:01.209Z,66.44
2018-03-14T03:37:28.443Z,66.46
2018-03-14T03:39:54.941Z,66.46
2018-03-14T03:42:21.385Z,66.44
2018-03-14T03:44:47.898Z,66.40
2018-03-14T03:47:15.136Z,66.44
2018-03-14T03:49:41.633Z,66.43
2018-03-14T03:52:08.094Z,66.42
2018-03-14T03:54:34.570Z,66.44
2018-03-14T03:57:01.017Z,66.43
2018-03-14T03:59:27.482Z,66.41
2018-03-14T04:01:53.942Z,66.35
2018-03-14T04:04:21.181Z,66.38
2018-03-14T04:06:47.643Z,66.38
2018-03-14T04:09:14.100Z,66.38
2018-03-14T04:11:41.323Z,66.40
2018-03-14T04:14:07.772Z,66.34
2018-03-14T04:16:34.234Z,66.38
2018-03-14T04:19:00.677Z,66.35
2018-03-14T04:21:27.120Z,66.31
2018-03-14T04:23:53.619Z,66.29
2018-03-14T04:26:20.070Z,66.31
2018-03-14T04:28:46.523Z,66.27
2018-03-14T04:31:12.997Z,66.08
2018-03-14T04:33:39.494Z,66.05
2018-03-14T04:36:05.967Z,66.17
2018-03-14T04:38:32.417Z,66.25
2018-03-14T04:40:58.875Z,66.26
2018-03-14T04:43:25.404Z,66.26
2018-03-14T04:45:51.970Z,66.48
2018-03-14T04:48:18.431Z,67.21
2018-03-14T04:50:44.878Z,67.45
2018-03-14T04:53:11.410Z,67.04
2018-03-14T04:55:37.870Z,67.17
2018-03-14T04:58:04.382Z,67.04
2018-03-14T05:00:30.832Z,66.39
2018-03-14T05:02:57.294Z,65.82
2018-03-14T05:05:23.754Z,65.83
2018-03-14T05:07:50.211Z,66.20
2018-03-14T05:10:17.056Z,66.40
2018-03-14T05:12:43.514Z,66.33
2018-03-14T05:15:09.971Z,66.27
2018-03-14T05:17:37.198Z,66.27
2018-03-14T05:20:04.133Z,66.26
2018-03-14T05:22:30.605Z,66.20
2018-03-14T05:24:57.051Z,66.21
2018-03-14T05:27:23.511Z,66.17
2018-03-14T05:29:50.014Z,66.17
2018-03-14T05:32:16.475Z,66.16
2018-03-14T05:34:42.966Z,66.16
2018-03-14T05:37:09.469Z,66.17
2018-03-14T05:39:35.938Z,66.16
2018-03-14T05:42:02.681Z,66.23
2018-03-14T05:44:29.161Z,66.19
2018-03-14T05:46:55.618Z,66.27
2018-03-14T05:49:22.842Z,66.19
2018-03-14T05:51:49.291Z,66.24
2018-03-14T05:54:15.896Z,66.27
2018-03-14T05:56:42.386Z,66.28
2018-03-14T05:59:08.857Z,66.29
2018-03-14T06:01:35.341Z,66.30
2018-03-14T06:04:01.896Z,66.30
2018-03-14T06:06:28.372Z,66.35
2018-03-14T06:08:54.845Z,66.36
2018-03-14T06:11:21.334Z,66.33
2018-03-14T06:13:47.798Z,66.37
2018-03-14T06:16:14.265Z,66.37
2018-03-14T06:18:40.708Z,66.41
2018-03-14T06:21:07.192Z,66.36
2018-03-14T06:23:34.400Z,66.40
2018-03-14T06:26:00.897Z,66.42
2018-03-14T06:28:28.122Z,66.40
2018-03-14T06:30:54.620Z,66.42
2018-03-14T06:33:21.856Z,66.43
2018-03-14T06:35:48.341Z,66.42
2018-03-14T06:38:14.811Z,66.44
2018-03-14T06:40:41.370Z,66.47
2018-03-14T06:43:07.841Z,66.46
2018-03-14T06:45:34.343Z,66.43
2018-03-14T06:48:00.793Z,66.45
2018-03-14T06:50:27.292Z,66.48
2018-03-14T06:52:53.740Z,66.46
2018-03-14T06:55:20.209Z,66.50
2018-03-14T06:57:47.438Z,66.50
2018-03-14T07:00:13.909Z,66.51
2018-03-14T07:02:41.116Z,66.50
2018-03-14T07:05:07.608Z,66.49
2018-03-14T07:07:34.079Z,66.51
2018-03-14T07:10:00.577Z,66.52
2018-03-14T07:12:27.820Z,66.48
2018-03-14T07:14:54.310Z,66.47
2018-03-14T07:17:20.752Z,66.52
2018-03-14T07:19:48.757Z,66.51
2018-03-14T07:22:15.982Z,66.53
2018-03-14T07:24:42.484Z,66.54
2018-03-14T07:27:08.961Z,66.57
2018-03-14T07:29:35.442Z,66.59
2018-03-14T07:32:01.890Z,66.62
2018-03-14T07:34:28.354Z,66.65
2018-03-14T07:36:55.588Z,66.61
2018-03-14T07:39:22.049Z,66.60
2018-03-14T07:41:48.502Z,66.63
2018-03-14T07:44:15.772Z,66.63
2018-03-14T07:46:43.013Z,66.66
2018-03-14T07:49:10.224Z,66.65
2018-03-14T07:51:36.682Z,66.65
2018-03-14T07:54:03.165Z,66.64
2018-03-14T07:56:29.609Z,66.64
2018-03-14T07:58:56.113Z,66.73
2018-03-14T08:01:22.580Z,66.72
2018-03-14T08:03:49.046Z,66.72
2018-03-14T08:06:15.502Z,66.73
2018-03-14T08:08:41.963Z,66.72
2018-03-14T08:11:09.186Z,66.74
2018-03-14T08:13:35.856Z,66.74
2018-03-14T08:16:02.205Z,66.79
2018-03-14T08:18:30.184Z,66.78
2018-03-14T08:20:57.396Z,66.78
2018-03-14T08:23:23.854Z,66.76
2018-03-14T08:25:50.314Z,66.36
2018-03-14T08:28:16.784Z,67.07
2018-03-14T08:30:43.246Z,67.50
2018-03-14T08:33:09.693Z,67.19
2018-03-14T08:35:36.161Z,67.11
2018-03-14T08:38:02.727Z,67.17
2018-03-14T08:40:29.210Z,67.15
2018-03-14T08:42:55.656Z,67.11
2018-03-14T08:45:22.149Z,67.14
2018-03-14T08:47:48.607Z,67.11
2018-03-14T08:50:15.076Z,67.09
2018-03-14T08:52:41.560Z,63.23
2018-03-14T08:55:08.028Z,64.46
2018-03-14T08:57:35.265Z,64.65
2018-03-14T09:00:01.784Z,64.61
2018-03-14T09:02:28.257Z,64.67
2018-03-14T09:04:55.552Z,64.76
2018-03-14T09:07:22.014Z,64.90
2018-03-14T09:09:48.499Z,64.98
2018-03-14T09:12:14.972Z,65.10
2018-03-14T09:14:41.450Z,65.16
2018-03-14T09:17:07.920Z,65.25
2018-03-14T09:19:34.461Z,65.33
2018-03-14T09:22:00.922Z,65.41
2018-03-14T09:24:27.392Z,65.51
2018-03-14T09:26:53.835Z,65.54
2018-03-14T09:29:20.295Z,65.56
2018-03-14T09:31:48.333Z,65.66
2018-03-14T09:34:14.774Z,65.66
2018-03-14T09:36:41.230Z,65.74
2018-03-14T09:39:07.705Z,65.75
2018-03-14T09:41:34.157Z,65.80
2018-03-14T09:44:00.631Z,65.83
2018-03-14T09:46:28.009Z,65.85
2018-03-14T09:48:54.480Z,65.91
2018-03-14T09:51:20.928Z,65.93
2018-03-14T09:53:47.387Z,65.96
2018-03-14T09:56:13.851Z,65.98
2018-03-14T09:58:40.315Z,66.01
2018-03-14T10:01:07.540Z,66.01
2018-03-14T10:03:34.003Z,66.07
2018-03-14T10:06:00.466Z,66.02
2018-03-14T10:08:26.913Z,66.04
2018-03-14T10:10:53.385Z,66.08
2018-03-14T10:13:19.843Z,66.10
2018-03-14T10:15:46.313Z,66.11
2018-03-14T10:18:12.780Z,66.15
2018-03-14T10:20:39.261Z,66.11
2018-03-14T10:23:06.496Z,66.15
2018-03-14T10:25:32.994Z,66.14
2018-03-14T10:27:59.432Z,66.19
2018-03-14T10:30:25.904Z,66.20
2018-03-14T10:32:52.376Z,66.20
2018-03-14T10:35:19.656Z,66.22
2018-03-14T10:37:46.093Z,66.22
2018-03-14T10:40:13.314Z,66.20
2018-03-14T10:42:39.759Z,66.23
2018-03-14T10:45:06.236Z,66.27
2018-03-14T10:47:32.700Z,66.25
2018-03-14T10:49:59.168Z,66.29
2018-03-14T10:52:26.376Z,66.28
2018-03-14T10:54:52.824Z,66.30
2018-03-14T10:57:19.282Z,66.29
2018-03-14T10:59:45.743Z,66.32
2018-03-14T11:02:12.190Z,66.34
2018-03-14T11:04:39.435Z,66.31
2018-03-14T11:07:05.890Z,66.33
2018-03-14T11:09:32.369Z,66.33
2018-03-14T11:11:59.604Z,66.33
2018-03-14T11:14:26.067Z,66.32
2018-03-14T11:16:52.626Z,66.33
2018-03-14T11:19:19.862Z,66.31
2018-03-14T11:21:46.348Z,66.33
2018-03-14T11:24:12.826Z,66.34
2018-03-14T11:26:39.316Z,66.32
2018-03-14T11:29:05.757Z,66.31
2018-03-14T11:31:32.246Z,66.33
2018-03-14T11:33:58.712Z,66.35
2018-03-14T11:36:25.199Z,66.33
2018-03-14T11:38:51.663Z,66.43
2018-03-14T11:41:18.917Z,66.35
2018-03-14T11:43:45.376Z,66.35
2018-03-14T11:46:12.631Z,66.34
2018-03-14T11:48:39.141Z,66.35
2018-03-14T11:51:05.610Z,66.34
2018-03-14T11:53:32.071Z,66.35
2018-03-14T11:55:58.550Z,66.36
2018-03-14T11:58:25.021Z,66.33
2018-03-14T12:00:51.517Z,66.36
2018-03-14T12:03:18.746Z,66.35
2018-03-14T12:05:45.244Z,66.32
2018-03-14T12:08:11.735Z,66.32
2018-03-14T12:10:38.278Z,66.33
2018-03-14T12:13:04.756Z,66.37
2018-03-14T12:15:31.249Z,66.35
2018-03-14T12:17:57.704Z,66.35
2018-03-14T12:20:24.201Z,66.38
2018-03-14T12:22:51.430Z,66.38
2018-03-14T12:25:18.011Z,66.40
2018-03-14T12:27:44.485Z,66.39
2018-03-14T12:30:10.964Z,66.35
2018-03-14T12:32:37.434Z,66.37
2018-03-14T12:35:04.439Z,66.35
2018-03-14T12:37:30.898Z,66.37
2018-03-14T12:39:57.433Z,66.40
2018-03-14T12:42:24.783Z,66.40
2018-03-14T12:44:52.025Z,66.41
2018-03-14T12:47:18.487Z,66.38
2018-03-14T12:49:45.743Z,66.42
2018-03-14T12:52:12.203Z,66.44
2018-03-14T12:54:39.452Z,66.39
2018-03-14T12:57:05.901Z,66.39
2018-03-14T12:59:32.355Z,66.41
2018-03-14T13:01:59.582Z,66.42
2018-03-14T13:04:26.042Z,66.42
2018-03-14T13:06:52.509Z,66.40
2018-03-14T13:09:18.971Z,66.41
2018-03-14T13:11:46.212Z,66.38
2018-03-14T13:14:12.697Z,66.27
2018-03-14T13:16:39.144Z,66.09
2018-03-14T13:19:05.620Z,65.86
2018-03-14T13:21:32.086Z,65.88
2018-03-14T13:23:58.556Z,65.77
2018-03-14T13:26:25.800Z,65.62
2018-03-14T13:28:52.269Z,65.40
2018-03-14T13:31:19.509Z,65.26
2018-03-14T13:33:45.980Z,65.14
2018-03-14T13:36:13.195Z,65.13
2018-03-14T13:38:39.655Z,65.08
2018-03-14T13:41:06.106Z,65.04
2018-03-14T13:43:32.566Z,65.04
2018-03-14T13:45:59.054Z,64.97
2018-03-14T13:48:25.525Z,65.00
2018-03-14T13:50:52.025Z,65.03
2018-03-14T13:53:19.251Z,65.00
2018-03-14T13:55:45.753Z,65.04
2018-03-14T13:58:12.200Z,65.00
2018-03-14T14:00:38.690Z,65.06
2018-03-14T14:03:05.164Z,65.05
2018-03-14T14:05:31.648Z,65.10
2018-03-14T14:07:58.103Z,65.14
2018-03-14T14:10:24.600Z,65.14
2018-03-14T14:12:51.072Z,65.16
2018-03-14T14:15:18.326Z,65.11
2018-03-14T14:17:45.551Z,65.14
2018-03-14T14:20:12.117Z,65.21
2018-03-14T14:22:38.535Z,65.22
2018-03-14T14:25:05.032Z,65.23
2018-03-14T14:27:32.269Z,65.22
2018-03-14T14:29:58.765Z,65.25
2018-03-14T14:32:25.211Z,65.25
2018-03-14T14:34:51.699Z,65.27
2018-03-14T14:37:18.169Z,65.27
2018-03-14T14:39:44.641Z,65.26
2018-03-14T14:42:11.131Z,65.24
2018-03-14T14:44:37.590Z,65.27
2018-03-14T14:47:04.323Z,65.29
2018-03-14T14:49:30.788Z,65.24
2018-03-14T14:51:57.246Z,65.27
2018-03-14T14:54:23.708Z,65.24
2018-03-14T14:56:50.197Z,65.29
2018-03-14T14:59:16.659Z,65.27
2018-03-14T15:01:43.123Z,65.28
2018-03-14T15:04:09.898Z,65.25
2018-03-14T15:06:37.136Z,65.27
2018-03-14T15:09:04.165Z,65.26
2018-03-14T15:11:30.644Z,65.29
2018-03-14T15:13:57.106Z,65.25
2018-03-14T15:16:23.562Z,65.26
2018-03-14T15:18:50.786Z,65.26
2018-03-14T15:21:17.391Z,65.23
2018-03-14T15:23:43.763Z,65.23
2018-03-14T15:26:10.205Z,65.21
2018-03-14T15:28:36.648Z,65.19
2018-03-14T15:31:03.732Z,65.21
2018-03-14T15:33:30.268Z,65.24
2018-03-14T15:35:56.736Z,65.20
2018-03-14T15:38:23.223Z,65.21
2018-03-14T15:40:50.460Z,65.22
2018-03-14T15:43:16.904Z,65.23
2018-03-14T15:45:43.368Z,65.23
2018-03-14T15:48:09.835Z,65.20
2018-03-14T15:50:37.051Z,65.20
2018-03-14T15:53:03.651Z,65.21
2018-03-14T15:55:30.101Z,65.17
2018-03-14T15:57:56.573Z,65.21
2018-03-14T16:00:23.040Z,65.19
2018-03-14T16:02:49.545Z,65.19
2018-03-14T16:05:15.988Z,65.20
2018-03-14T16:07:42.456Z,65.17
2018-03-14T16:10:08.915Z,65.16
2018-03-14T16:12:35.365Z,65.13
2018-03-14T16:15:01.906Z,65.13
2018-03-14T16:17:28.356Z,65.13
2018-03-14T16:19:54.833Z,65.11
2018-03-14T16:22:21.309Z,65.11
2018-03-14T16:24:47.790Z,65.14
2018-03-14T16:27:14.302Z,65.14
2018-03-14T16:29:40.766Z,65.11
2018-03-14T16:32:07.223Z,65.15
2018-03-14T16:34:33.682Z,64.79
2018-03-14T16:37:00.139Z,65.55
2018-03-14T16:39:26.603Z,65.23
2018-03-14T16:41:53.063Z,65.10
2018-03-14T16:44:20.309Z,65.14
2018-03-14T16:46:46.787Z,65.20
2018-03-14T16:49:13.247Z,65.25
2018-03-14T16:51:39.721Z,65.27
2018-03-14T16:54:06.168Z,65.25
2018-03-14T16:56:32.640Z,65.28
2018-03-14T16:58:59.876Z,65.28
2018-03-14T17:01:26.345Z,65.28
2018-03-14T17:03:52.806Z,65.10
2018-03-14T17:06:19.291Z,64.82
2018-03-14T17:08:45.752Z,64.45
2018-03-14T17:11:12.249Z,64.60
2018-03-14T17:13:38.722Z,64.76
2018-03-14T17:16:05.204Z,64.82
2018-03-14T17:18:31.800Z,64.85
2018-03-14T17:20:58.349Z,56.57
2018-03-14T17:23:25.606Z,57.51
2018-03-14T17:25:52.961Z,58.15
2018-03-14T17:28:19.411Z,58.43
2018-03-14T17:30:45.895Z,58.65
2018-03-14T17:33:12.363Z,58.59
2018-03-14T17:35:38.928Z,58.61
2018-03-14T17:38:05.407Z,58.82
2018-03-14T17:40:32.650Z,59.04
2018-03-14T17:42:59.107Z,59.32
2018-03-14T17:45:25.603Z,59.55
2018-03-14T17:47:52.081Z,59.83
2018-03-14T17:50:18.739Z,60.04
2018-03-14T17:52:45.448Z,60.24
2018-03-14T17:55:11.984Z,60.38
2018-03-14T17:57:38.453Z,60.51
2018-03-14T18:00:05.243Z,60.71
2018-03-14T18:02:32.136Z,60.83
2018-03-14T18:04:58.760Z,60.97
2018-03-14T18:07:26.029Z,61.07
2018-03-14T18:09:52.556Z,61.22
2018-03-14T18:12:19.096Z,61.36
2018-03-14T18:14:45.711Z,61.42
2018-03-14T18:17:12.198Z,61.48
2018-03-14T18:19:39.455Z,61.65
2018-03-14T18:22:06.163Z,61.75
2018-03-14T18:24:32.915Z,61.80
2018-03-14T18:26:59.571Z,61.88
2018-03-14T18:29:26.269Z,61.96
2018-03-14T18:31:52.801Z,62.06
2018-03-14T18:34:19.289Z,62.14
2018-03-14T18:36:45.969Z,62.23
2018-03-14T18:39:12.479Z,62.32
2018-03-14T18:41:39.680Z,62.35
2018-03-14T18:44:06.946Z,62.47
2018-03-14T18:46:33.776Z,62.56
2018-03-14T18:49:00.966Z,62.66
2018-03-14T18:51:28.326Z,62.73
2018-03-14T18:53:55.081Z,62.81
2018-03-14T18:56:22.346Z,62.88
2018-03-14T18:58:49.615Z,62.94
2018-03-14T19:01:17.057Z,63.02
2018-03-14T19:03:44.453Z,63.11
2018-03-14T19:06:11.834Z,63.16
2018-03-14T19:08:39.253Z,63.23
2018-03-14T19:11:06.669Z,63.33
2018-03-14T19:13:33.982Z,63.36
2018-03-14T19:16:00.675Z,63.41
2018-03-14T19:18:27.730Z,63.48
2018-03-14T19:20:55.383Z,63.53
2018-03-14T19:23:22.774Z,63.58
2018-03-14T19:25:50.456Z,63.66
2018-03-14T19:28:18.638Z,63.71
2018-03-14T19:30:46.313Z,63.73
2018-03-14T19:33:13.683Z,63.79
2018-03-14T19:35:41.154Z,63.84
2018-03-14T19:38:08.833Z,63.90
2018-03-14T19:40:36.298Z,63.91
2018-03-14T19:43:03.768Z,63.95
2018-03-14T19:45:32.861Z,63.97
2018-03-14T19:48:00.450Z,64.08
2018-03-14T19:50:28.110Z,64.00
2018-03-14T19:52:55.490Z,64.04
2018-03-14T19:55:23.043Z,64.08
2018-03-14T19:57:53.708Z,64.11
2018-03-14T20:00:21.463Z,64.12
2018-03-14T20:02:48.758Z,64.16
2018-03-14T20:05:16.284Z,64.21
2018-03-14T20:07:43.692Z,64.25
2018-03-14T20:10:11.366Z,64.29
2018-03-14T20:12:39.551Z,64.31
2018-03-14T20:15:07.214Z,64.35
2018-03-14T20:17:34.699Z,64.38
2018-03-14T20:20:02.335Z,64.40
2018-03-14T20:22:29.836Z,64.41
2018-03-14T20:24:58.130Z,64.46
2018-03-14T20:27:25.598Z,64.50
2018-03-14T20:29:53.163Z,64.51
2018-03-14T20:32:21.339Z,64.54
2018-03-14T20:34:48.906Z,64.55
2018-03-14T20:37:16.397Z,64.59
2018-03-14T20:39:43.768Z,64.65
2018-03-14T20:42:12.429Z,64.53
2018-03-14T20:44:40.037Z,64.53
2018-03-14T20:47:07.593Z,64.60
2018-03-14T20:49:34.941Z,64.56
2018-03-14T20:52:02.221Z,64.53
2018-03-14T20:54:29.922Z,64.59
2018-03-14T20:56:57.394Z,64.57
2018-03-14T20:59:25.680Z,64.73
2018-03-14T21:01:53.792Z,65.20
2018-03-14T21:04:21.644Z,65.47
2018-03-14T21:06:49.042Z,65.28
2018-03-14T21:09:16.480Z,65.17
2018-03-14T21:11:43.950Z,65.11
2018-03-14T21:14:11.646Z,65.14
2018-03-14T21:16:40.095Z,65.10
2018-03-14T21:19:08.445Z,65.15
2018-03-14T21:21:35.995Z,65.12
2018-03-14T21:24:03.963Z,65.14
2018-03-14T21:26:31.683Z,65.09
2018-03-14T21:28:59.246Z,65.14
2018-03-14T21:31:26.941Z,65.11
2018-03-14T21:33:55.535Z,65.12
2018-03-14T21:36:24.396Z,65.11
2018-03-14T21:38:52.965Z,65.16
2018-03-14T21:41:20.965Z,65.14
2018-03-14T21:43:49.373Z,65.14
2018-03-14T21:46:17.475Z,65.16
2018-03-14T21:48:46.734Z,65.17
2018-03-14T21:51:15.276Z,65.21
2018-03-14T21:53:47.339Z,65.18
2018-03-14T21:56:15.330Z,65.20
2018-03-14T21:58:42.968Z,65.18
2018-03-14T22:01:10.903Z,65.19
2018-03-14T22:03:38.449Z,65.20
2018-03-14T22:06:06.197Z,65.21
2018-03-14T22:08:36.067Z,65.23
2018-03-14T22:11:07.911Z,65.22
2018-03-14T22:13:36.313Z,65.24
2018-03-14T22:16:04.086Z,65.27
2018-03-14T22:18:31.858Z,65.25
2018-03-14T22:23:31.864Z,65.30
2018-03-14T22:26:00.618Z,65.28
2018-03-14T22:28:29.272Z,65.28
2018-03-14T22:30:57.320Z,65.28
2018-03-14T22:33:24.971Z,65.29
2018-03-14T22:35:53.558Z,65.31
2018-03-14T22:38:21.877Z,65.31
2018-03-14T22:40:48.710Z,65.32
2018-03-14T22:43:18.388Z,65.32
2018-03-14T22:45:49.032Z,65.36
2018-03-14T22:48:17.271Z,65.31
2018-03-14T22:50:45.254Z,65.33
2018-03-14T22:53:12.871Z,65.31
2018-03-14T22:55:44.065Z,65.32
2018-03-14T22:58:11.701Z,65.29
2018-03-14T23:00:42.438Z,65.31
2018-03-14T23:05:40.712Z,65.29
2018-03-14T23:08:08.681Z,65.31
2018-03-14T23:10:39.654Z,65.33
2018-03-14T23:13:09.428Z,65.32
2018-03-14T23:15:38.040Z,65.35
2018-03-14T23:18:05.650Z,65.32
2018-03-14T23:20:34.172Z,65.30
2018-03-14T23:23:04.504Z,65.29
2018-03-14T23:28:05.897Z,65.31
2018-03-14T23:30:32.653Z,65.30
2018-03-14T23:32:59.107Z,65.31
2018-03-14T23:35:25.586Z,65.28
2018-03-14T23:37:52.161Z,65.28
2018-03-14T23:40:19.480Z,65.25
2018-03-14T23:42:46.023Z,65.26
2018-03-14T23:45:12.732Z,65.24
2018-03-14T23:47:39.246Z,65.23
2018-03-14T23:50:05.774Z,65.25
2018-03-14T23:52:32.230Z,65.24
2018-03-14T23:54:58.700Z,65.24
2018-03-14T23:57:25.167Z,65.24
2018-03-14T23:59:52.538Z,65.21
